createdAt,value
2022-08-12T00:01:14.333Z,63.42
2022-08-12T00:04:01.659Z,63.44
2022-08-12T00:06:56.244Z,61.10
2022-08-12T00:09:43.564Z,60.15
2022-08-12T00:12:30.041Z,59.79
2022-08-12T00:15:16.671Z,58.35
2022-08-12T00:18:03.176Z,58.97
2022-08-12T00:20:50.087Z,59.97
2022-08-12T00:23:39.560Z,63.95
2022-08-12T00:26:26.267Z,64.84
2022-08-12T00:29:13.189Z,63.91
2022-08-12T00:32:01.211Z,63.54
2022-08-12T00:34:49.707Z,63.71
2022-08-12T00:37:41.161Z,62.60
2022-08-12T00:40:30.208Z,62.50
2022-08-12T00:43:00.888Z,61.68
2022-08-12T00:45:51.994Z,60.90
2022-08-12T00:48:19.958Z,60.80
2022-08-12T00:50:48.583Z,61.36
2022-08-12T00:53:19.308Z,61.15
2022-08-12T00:55:47.380Z,61.06
2022-08-12T00:58:20.392Z,61.01
2022-08-12T01:00:48.301Z,60.85
2022-08-12T01:03:16.399Z,60.10
2022-08-12T01:06:03.123Z,58.32
2022-08-12T01:08:50.501Z,58.38
2022-08-12T01:11:33.148Z,59.92
2022-08-12T01:14:03.743Z,60.10
2022-08-12T01:16:31.815Z,65.32
2022-08-12T01:19:00.395Z,67.14
2022-08-12T01:21:28.373Z,66.09
2022-08-12T01:24:44.088Z,64.46
2022-08-12T01:27:12.120Z,62.88
2022-08-12T01:29:44.165Z,61.88
2022-08-12T01:32:14.635Z,60.53
2022-08-12T01:35:16.682Z,59.99
2022-08-12T01:37:58.715Z,60.52
2022-08-12T01:40:36.654Z,60.53
2022-08-12T01:43:15.597Z,59.93
2022-08-12T01:46:35.082Z,57.22
2022-08-12T01:49:12.679Z,57.52
2022-08-12T01:52:15.489Z,59.17
2022-08-12T01:54:43.972Z,64.07
2022-08-12T01:57:57.913Z,64.97
2022-08-12T02:00:12.409Z,62.93
2022-08-12T02:02:58.017Z,61.26
2022-08-12T02:06:03.465Z,61.98
2022-08-12T02:09:14.748Z,60.70
2022-08-12T02:12:25.972Z,61.17
2022-08-12T02:15:02.090Z,60.30
2022-08-12T02:17:55.370Z,61.32
2022-08-12T02:20:52.054Z,63.05
2022-08-12T02:23:27.107Z,63.27
2022-08-12T02:26:08.409Z,63.01
2022-08-12T02:28:39.548Z,63.02
2022-08-12T02:31:09.158Z,62.45
2022-08-12T02:33:40.605Z,62.08
2022-08-12T02:36:08.813Z,62.34
2022-08-12T02:38:37.053Z,61.70
2022-08-12T02:41:07.183Z,61.80
2022-08-12T02:43:53.080Z,61.97
2022-08-12T02:46:31.272Z,60.83
2022-08-12T02:49:09.066Z,62.03
2022-08-12T02:51:42.823Z,61.47
2022-08-12T02:54:11.147Z,61.36
2022-08-12T02:56:50.146Z,60.81
2022-08-12T02:59:21.929Z,60.71
2022-08-12T03:01:56.070Z,61.25
2022-08-12T03:04:30.594Z,61.45
2022-08-12T03:07:12.960Z,61.31
2022-08-12T03:10:25.111Z,62.11
2022-08-12T03:13:07.663Z,61.80
2022-08-12T03:15:36.269Z,60.54
2022-08-12T03:18:30.021Z,61.65
2022-08-12T03:21:01.700Z,61.36
2022-08-12T03:23:31.343Z,61.27
2022-08-12T03:26:02.103Z,61.62
2022-08-12T03:28:50.800Z,61.20
2022-08-12T03:31:23.028Z,61.30
2022-08-12T03:34:02.386Z,60.27
2022-08-12T03:36:36.158Z,60.27
2022-08-12T03:39:35.841Z,60.95
2022-08-12T03:42:22.178Z,60.60
2022-08-12T03:45:12.096Z,60.46
2022-08-12T03:48:19.060Z,60.55
2022-08-12T03:51:06.982Z,60.27
2022-08-12T03:53:53.719Z,59.02
2022-08-12T03:56:40.257Z,59.73
2022-08-12T03:59:27.545Z,61.17
2022-08-12T04:01:58.074Z,63.88
2022-08-12T04:04:28.752Z,65.70
2022-08-12T04:06:58.176Z,64.92
2022-08-12T04:09:26.177Z,63.98
2022-08-12T04:12:13.190Z,62.88
2022-08-12T04:14:42.180Z,63.21
2022-08-12T04:17:10.251Z,63.10
2022-08-12T04:19:39.039Z,62.34
2022-08-12T04:22:06.948Z,62.59
2022-08-12T04:24:36.295Z,62.51
2022-08-12T04:27:07.170Z,61.88
2022-08-12T04:30:30.607Z,61.67
2022-08-12T04:32:23.559Z,61.29
2022-08-12T04:34:51.978Z,60.68
2022-08-12T04:37:19.911Z,60.62
2022-08-12T04:39:48.162Z,60.29
2022-08-12T04:42:16.390Z,59.09
2022-08-12T04:44:47.089Z,58.09
2022-08-12T04:47:16.702Z,60.19
2022-08-12T04:49:46.104Z,63.75
2022-08-12T04:52:14.267Z,64.36
2022-08-12T04:54:44.155Z,64.24
2022-08-12T04:57:12.154Z,63.50
2022-08-12T04:59:46.851Z,62.76
2022-08-12T05:02:22.906Z,63.01
2022-08-12T05:04:52.171Z,62.53
2022-08-12T05:07:20.837Z,62.10
2022-08-12T05:09:59.334Z,62.22
2022-08-12T05:12:40.311Z,62.44
2022-08-12T05:15:19.624Z,62.10
2022-08-12T05:18:00.160Z,63.03
2022-08-12T05:20:31.037Z,62.86
2022-08-12T05:23:14.980Z,62.21
2022-08-12T05:25:43.644Z,63.31
2022-08-12T05:28:13.311Z,63.00
2022-08-12T05:30:43.082Z,62.80
2022-08-12T05:33:15.736Z,63.14
2022-08-12T05:35:45.167Z,62.96
2022-08-12T05:38:34.182Z,62.46
2022-08-12T05:41:05.267Z,61.40
2022-08-12T05:43:34.359Z,62.70
2022-08-12T05:46:02.267Z,61.61
2022-08-12T05:48:31.321Z,62.23
2022-08-12T05:50:59.228Z,62.72
2022-08-12T05:53:27.362Z,62.56
2022-08-12T05:55:55.226Z,62.15
2022-08-12T05:58:23.092Z,61.78
2022-08-12T06:00:51.064Z,61.60
2022-08-12T06:03:21.743Z,61.20
2022-08-12T06:05:55.064Z,61.02
2022-08-12T06:08:25.412Z,61.54
2022-08-12T06:10:53.991Z,61.33
2022-08-12T06:13:27.848Z,61.60
2022-08-12T06:16:16.447Z,58.34
2022-08-12T06:18:44.321Z,59.65
2022-08-12T06:21:14.880Z,61.53
2022-08-12T06:23:45.785Z,62.84
2022-08-12T06:26:15.692Z,60.28
2022-08-12T06:28:43.768Z,60.59
2022-08-12T06:31:26.634Z,61.80
2022-08-12T06:35:19.263Z,62.03
2022-08-12T06:36:46.249Z,58.96
2022-08-12T06:39:15.282Z,60.34
2022-08-12T06:42:32.102Z,61.71
2022-08-12T06:44:50.741Z,62.14
2022-08-12T06:47:19.950Z,58.09
2022-08-12T06:49:48.819Z,59.29
2022-08-12T06:52:17.441Z,59.04
2022-08-12T06:54:45.968Z,60.21
2022-08-12T06:57:57.001Z,62.36
2022-08-12T07:00:04.141Z,62.13
2022-08-12T07:02:36.437Z,60.53
2022-08-12T07:05:05.753Z,57.55
2022-08-12T07:07:33.780Z,58.63
2022-08-12T07:10:07.662Z,59.77
2022-08-12T07:12:37.057Z,59.41
2022-08-12T07:15:06.181Z,60.77
2022-08-12T07:17:37.974Z,60.51
2022-08-12T07:20:29.670Z,60.74
2022-08-12T07:23:05.471Z,61.81
2022-08-12T07:25:37.926Z,61.93
2022-08-12T07:28:16.366Z,63.03
2022-08-12T07:30:50.107Z,61.59
2022-08-12T07:33:22.437Z,59.70
2022-08-12T07:35:51.368Z,59.26
2022-08-12T07:38:40.329Z,60.18
2022-08-12T07:41:18.232Z,61.36
2022-08-12T07:43:50.137Z,62.87
2022-08-12T07:46:20.760Z,62.55
2022-08-12T07:48:54.057Z,60.32
2022-08-12T07:51:24.832Z,58.50
2022-08-12T07:54:00.734Z,59.74
2022-08-12T07:56:31.573Z,61.83
2022-08-12T07:59:01.309Z,63.29
2022-08-12T08:01:29.893Z,62.39
2022-08-12T08:04:19.158Z,61.43
2022-08-12T08:06:47.885Z,60.22
2022-08-12T08:09:17.942Z,57.95
2022-08-12T08:12:04.608Z,58.12
2022-08-12T08:14:35.338Z,61.06
2022-08-12T08:17:03.741Z,61.95
2022-08-12T08:20:00.234Z,63.24
2022-08-12T08:22:33.485Z,62.07
2022-08-12T08:25:34.517Z,58.61
2022-08-12T08:28:04.450Z,58.36
2022-08-12T08:30:33.029Z,59.95
2022-08-12T08:33:00.963Z,62.01
2022-08-12T08:35:37.767Z,63.50
2022-08-12T08:38:31.945Z,62.36
2022-08-12T08:42:16.871Z,60.83
2022-08-12T08:44:12.339Z,59.14
2022-08-12T08:46:41.116Z,59.73
2022-08-12T08:49:09.195Z,60.66
2022-08-12T08:51:39.182Z,61.31
2022-08-12T08:54:08.987Z,63.16
2022-08-12T08:56:50.307Z,61.68
2022-08-12T08:59:23.140Z,60.29
2022-08-12T09:01:51.307Z,59.28
2022-08-12T09:05:11.118Z,60.41
2022-08-12T09:10:02.532Z,63.32
2022-08-12T09:12:54.959Z,61.86
2022-08-12T09:18:14.478Z,59.76
2022-08-12T09:20:43.266Z,57.10
2022-08-12T09:23:58.864Z,57.39
2022-08-12T09:26:04.393Z,59.81
2022-08-12T09:32:07.740Z,62.02
2022-08-12T09:34:28.474Z,63.12
2022-08-12T09:37:00.184Z,62.70
2022-08-12T09:40:01.871Z,60.18
2022-08-12T09:42:52.922Z,59.85
2022-08-12T09:46:19.884Z,61.49
2022-08-12T09:48:21.986Z,62.66
2022-08-12T09:50:51.887Z,61.75
2022-08-12T09:53:29.426Z,60.62
2022-08-12T09:56:59.208Z,59.56
2022-08-12T09:58:59.827Z,60.51
2022-08-12T10:01:35.438Z,62.70
2022-08-12T10:04:19.116Z,63.25
2022-08-12T10:06:55.529Z,62.62
2022-08-12T10:09:57.348Z,62.16
2022-08-12T10:12:33.326Z,61.91
2022-08-12T10:15:02.096Z,61.66
2022-08-12T10:17:30.204Z,61.16
2022-08-12T10:19:59.485Z,61.28
2022-08-12T10:22:39.778Z,61.04
2022-08-12T10:26:35.333Z,60.34
2022-08-12T10:28:38.344Z,59.25
2022-08-12T10:31:16.369Z,62.53
2022-08-12T10:34:05.144Z,63.49
2022-08-12T10:36:40.462Z,62.65
2022-08-12T10:40:00.678Z,62.50
2022-08-12T10:42:31.343Z,61.27
2022-08-12T10:45:09.294Z,61.53
2022-08-12T10:48:20.123Z,60.63
2022-08-12T10:50:58.498Z,60.77
2022-08-12T10:53:43.673Z,60.60
2022-08-12T10:56:11.725Z,61.28
2022-08-12T10:58:39.919Z,61.30
2022-08-12T11:01:49.575Z,60.72
2022-08-12T11:04:25.807Z,60.42
2022-08-12T11:07:05.539Z,60.21
2022-08-12T11:09:56.510Z,59.52
2022-08-12T11:12:55.110Z,62.54
2022-08-12T11:15:14.731Z,62.86
2022-08-12T11:17:52.729Z,60.90
2022-08-12T11:20:24.449Z,59.99
2022-08-12T11:23:00.000Z,58.80
2022-08-12T11:25:56.183Z,59.52
2022-08-12T11:28:34.139Z,60.83
2022-08-12T11:31:05.284Z,62.60
2022-08-12T11:34:04.137Z,61.89
2022-08-12T11:36:22.180Z,60.80
2022-08-12T11:38:51.408Z,59.83
2022-08-12T11:41:28.152Z,59.49
2022-08-12T11:44:35.301Z,61.11
2022-08-12T11:46:53.049Z,63.27
2022-08-12T11:49:31.208Z,62.92
2022-08-12T11:52:02.988Z,61.64
2022-08-12T11:54:31.591Z,61.55
2022-08-12T11:57:02.513Z,61.03
2022-08-12T12:02:20.990Z,60.55
2022-08-12T12:04:53.918Z,60.45
2022-08-12T12:08:36.693Z,60.18
2022-08-12T12:10:16.032Z,60.41
2022-08-12T12:12:48.579Z,60.93
2022-08-12T12:15:25.441Z,61.05
2022-08-12T12:18:07.342Z,61.10
2022-08-12T12:20:40.756Z,61.58
2022-08-12T12:23:15.268Z,61.60
2022-08-12T12:26:07.139Z,61.21
2022-08-12T12:28:39.656Z,60.63
2022-08-12T12:31:14.760Z,61.25
2022-08-12T12:33:57.739Z,62.19
2022-08-12T12:36:29.948Z,62.50
2022-08-12T12:39:00.234Z,62.65
2022-08-12T12:42:42.763Z,62.90
2022-08-12T12:44:25.512Z,63.29
2022-08-12T12:46:58.398Z,63.60
2022-08-12T12:49:28.827Z,62.86
2022-08-12T12:52:19.815Z,63.07
2022-08-12T12:54:52.924Z,62.62
2022-08-12T12:57:21.605Z,62.66
2022-08-12T13:00:16.110Z,63.09
2022-08-12T13:02:53.860Z,63.24
2022-08-12T13:05:42.227Z,63.18
2022-08-12T13:08:28.012Z,63.12
2022-08-12T13:11:00.819Z,63.20
2022-08-12T13:14:09.118Z,63.43
2022-08-12T13:16:21.017Z,63.03
2022-08-12T13:18:52.280Z,63.32
2022-08-12T13:21:33.226Z,62.38
2022-08-12T13:24:09.942Z,62.55
2022-08-12T13:26:40.766Z,63.02
2022-08-12T13:29:11.593Z,63.32
2022-08-12T13:32:19.602Z,62.89
2022-08-12T13:34:34.915Z,62.85
2022-08-12T13:37:09.631Z,62.66
2022-08-12T13:39:39.345Z,61.49
2022-08-12T13:42:13.750Z,60.97
2022-08-12T13:44:42.913Z,61.59
2022-08-12T13:47:18.827Z,61.51
2022-08-12T13:49:55.034Z,61.02
2022-08-12T13:52:24.389Z,62.07
2022-08-12T13:54:55.149Z,62.43
2022-08-12T13:57:26.666Z,62.36
2022-08-12T14:00:00.494Z,61.99
2022-08-12T14:02:40.286Z,61.66
2022-08-12T14:05:31.236Z,61.60
2022-08-12T14:08:03.746Z,61.52
2022-08-12T14:10:50.425Z,60.25
2022-08-12T14:14:03.613Z,59.11
2022-08-12T14:16:48.641Z,58.81
2022-08-12T14:19:10.611Z,60.71
2022-08-12T14:21:59.688Z,63.48
2022-08-12T14:24:35.773Z,63.46
2022-08-12T14:27:09.201Z,62.29
2022-08-12T14:30:05.658Z,62.11
2022-08-12T14:32:39.948Z,61.75
2022-08-12T14:35:09.425Z,61.14
2022-08-12T14:37:55.349Z,60.92
2022-08-12T14:40:30.344Z,60.60
2022-08-12T14:42:58.770Z,61.17
2022-08-12T14:45:45.424Z,61.70
2022-08-12T14:48:19.371Z,62.11
2022-08-12T14:52:10.796Z,62.32
2022-08-12T14:57:00.122Z,63.29
2022-08-12T14:59:56.636Z,62.81
2022-08-12T15:02:26.648Z,62.98
2022-08-12T15:04:59.367Z,63.02
2022-08-12T15:07:33.746Z,62.59
2022-08-12T15:10:31.542Z,62.12
2022-08-12T15:13:06.833Z,62.34
2022-08-12T15:15:43.908Z,63.04
2022-08-12T15:18:21.195Z,62.82
2022-08-12T15:20:54.748Z,63.10
2022-08-12T15:23:29.318Z,63.59
2022-08-12T15:26:05.991Z,63.46
2022-08-12T15:28:35.125Z,63.55
2022-08-12T15:31:21.265Z,64.03
2022-08-12T15:33:57.098Z,63.41
2022-08-12T15:36:53.939Z,63.71
2022-08-12T15:39:17.098Z,64.09
2022-08-12T15:41:49.135Z,64.10
2022-08-12T15:44:38.753Z,63.90
2022-08-12T15:47:07.873Z,63.59
2022-08-12T15:49:54.530Z,63.54
2022-08-12T15:52:28.290Z,63.26
2022-08-12T15:54:58.409Z,63.42
2022-08-12T15:57:27.725Z,63.25
2022-08-12T16:00:07.517Z,62.96
2022-08-12T16:02:50.404Z,62.96
2022-08-12T16:06:15.461Z,62.65
2022-08-12T16:08:16.344Z,62.30
2022-08-12T16:10:47.864Z,62.06
2022-08-12T16:13:32.212Z,62.29
2022-08-12T16:16:22.410Z,62.51
2022-08-12T16:18:59.474Z,62.59
2022-08-12T16:21:52.094Z,62.31
2022-08-12T16:24:19.170Z,62.58
2022-08-12T16:26:51.319Z,62.55
2022-08-12T16:29:38.442Z,62.13
2022-08-12T16:32:24.467Z,62.46
2022-08-12T16:34:59.879Z,62.17
2022-08-12T16:38:05.006Z,61.85
2022-08-12T16:40:19.174Z,61.83
2022-08-12T16:42:54.162Z,61.85
2022-08-12T16:46:04.392Z,61.71
2022-08-12T16:48:35.209Z,61.81
2022-08-12T16:51:10.477Z,62.37
2022-08-12T16:53:43.827Z,62.37
2022-08-12T16:56:16.809Z,62.62
2022-08-12T16:58:47.272Z,62.98
2022-08-12T17:01:16.687Z,62.59
2022-08-12T17:04:09.099Z,63.34
2022-08-12T17:06:43.630Z,63.57
2022-08-12T17:09:16.936Z,63.57
2022-08-12T17:11:49.099Z,64.20
2022-08-12T17:14:23.110Z,64.01
2022-08-12T17:16:55.713Z,63.22
2022-08-12T17:20:02.466Z,63.78
2022-08-12T17:22:15.534Z,64.12
2022-08-12T17:24:54.985Z,63.79
2022-08-12T17:27:30.977Z,65.12
2022-08-12T17:30:00.912Z,66.24
2022-08-12T17:32:33.805Z,66.09
2022-08-12T17:35:20.764Z,66.20
2022-08-12T17:37:48.853Z,66.45
2022-08-12T17:40:35.852Z,66.08
2022-08-12T17:43:56.981Z,65.93
2022-08-12T17:45:59.093Z,65.63
2022-08-12T17:48:34.741Z,64.28
2022-08-12T17:51:15.448Z,65.62
2022-08-12T17:54:10.493Z,65.22
2022-08-12T17:56:37.008Z,65.21
2022-08-12T17:59:07.376Z,66.74
2022-08-12T18:01:37.057Z,67.27
2022-08-12T18:04:21.190Z,66.90
2022-08-12T18:06:52.667Z,66.00
2022-08-12T18:09:24.532Z,66.21
2022-08-12T18:12:24.858Z,66.33
2022-08-12T18:15:00.740Z,66.19
2022-08-12T18:17:30.084Z,66.34
2022-08-12T18:20:06.174Z,67.29
2022-08-12T18:22:38.523Z,68.00
2022-08-12T18:26:12.246Z,67.80
2022-08-12T18:28:15.130Z,67.73
2022-08-12T18:30:53.460Z,68.19
2022-08-12T18:33:26.776Z,68.45
2022-08-12T18:35:56.671Z,68.50
2022-08-12T18:38:26.244Z,67.96
2022-08-12T18:41:22.416Z,67.83
2022-08-12T18:44:02.519Z,67.16
2022-08-12T18:46:45.998Z,67.31
2022-08-12T18:49:39.694Z,66.75
2022-08-12T18:52:11.866Z,67.39
2022-08-12T18:54:53.377Z,67.83
2022-08-12T18:58:05.945Z,68.18
2022-08-12T19:00:22.391Z,68.38
2022-08-12T19:02:53.838Z,68.75
2022-08-12T19:05:53.352Z,68.92
2022-08-12T19:08:14.703Z,69.04
2022-08-12T19:10:50.719Z,69.08
2022-08-12T19:13:40.027Z,69.23
2022-08-12T19:16:11.276Z,69.36
2022-08-12T19:18:44.843Z,69.07
2022-08-12T19:21:15.954Z,68.56
2022-08-12T19:24:05.179Z,68.62
2022-08-12T19:26:34.985Z,68.36
2022-08-12T19:29:05.273Z,68.75
2022-08-12T19:31:57.975Z,68.30
2022-08-12T19:38:03.060Z,68.41
2022-08-12T19:40:32.831Z,67.83
2022-08-12T19:43:19.583Z,67.62
2022-08-12T19:45:56.760Z,67.36
2022-08-12T19:48:30.711Z,66.87
2022-08-12T19:51:22.620Z,66.56
2022-08-12T19:53:58.406Z,67.03
2022-08-12T19:56:30.161Z,67.15
2022-08-12T19:59:19.334Z,66.92
2022-08-12T20:02:02.308Z,66.52
2022-08-12T20:04:37.359Z,66.56
2022-08-12T20:07:07.822Z,66.70
2022-08-12T20:09:51.656Z,66.03
2022-08-12T20:12:31.878Z,66.60
2022-08-12T20:15:05.352Z,66.55
2022-08-12T20:17:35.991Z,67.24
2022-08-12T20:20:19.781Z,67.25
2022-08-12T20:22:55.015Z,66.81
2022-08-12T20:25:27.987Z,66.39
2022-08-12T20:28:02.667Z,67.16
2022-08-12T20:30:53.228Z,67.21
2022-08-12T20:33:32.285Z,67.19
2022-08-12T20:36:40.918Z,67.42
2022-08-12T20:39:37.338Z,67.69
2022-08-12T20:41:58.737Z,67.21
2022-08-12T20:44:27.098Z,66.78
2022-08-12T20:47:18.336Z,66.74
2022-08-12T20:49:55.350Z,66.46
2022-08-12T20:52:29.822Z,66.29
2022-08-12T20:54:58.338Z,66.33
2022-08-12T20:57:38.302Z,66.53
2022-08-12T21:00:28.313Z,66.62
2022-08-12T21:03:16.676Z,66.54
2022-08-12T21:06:15.568Z,66.38
2022-08-12T21:08:43.929Z,66.34
2022-08-12T21:11:11.694Z,66.03
2022-08-12T21:13:41.961Z,65.96
2022-08-12T21:16:10.541Z,65.88
2022-08-12T21:18:39.386Z,65.81
2022-08-12T21:21:24.157Z,65.65
2022-08-12T21:23:56.528Z,65.79
2022-08-12T21:26:27.921Z,65.69
2022-08-12T21:29:01.210Z,65.73
2022-08-12T21:32:36.169Z,65.57
2022-08-12T21:34:22.034Z,64.84
2022-08-12T21:36:54.032Z,65.41
2022-08-12T21:39:30.500Z,65.83
2022-08-12T21:42:06.864Z,65.47
2022-08-12T21:45:47.899Z,65.46
2022-08-12T21:47:25.258Z,65.91
2022-08-12T21:50:04.151Z,66.14
2022-08-12T21:52:41.040Z,66.19
2022-08-12T21:55:19.259Z,66.64
2022-08-12T21:57:53.262Z,66.85
2022-08-12T22:00:33.242Z,67.00
2022-08-12T22:04:01.449Z,67.00
2022-08-12T22:06:31.181Z,66.95
2022-08-12T22:09:16.283Z,66.97
2022-08-12T22:11:59.163Z,66.68
2022-08-12T22:14:28.922Z,66.40
2022-08-12T22:16:57.939Z,66.26
2022-08-12T22:19:26.790Z,66.43
2022-08-12T22:21:58.306Z,66.56
2022-08-12T22:24:30.082Z,66.57
2022-08-12T22:27:08.042Z,66.65
2022-08-12T22:30:09.029Z,66.10
2022-08-12T22:32:49.848Z,65.80
2022-08-12T22:35:47.473Z,65.40
2022-08-12T22:38:25.341Z,65.00
2022-08-12T22:40:55.935Z,64.75
2022-08-12T22:44:01.156Z,64.70
2022-08-12T22:46:52.677Z,65.03
2022-08-12T22:49:37.124Z,65.12
2022-08-12T22:52:23.320Z,65.39
2022-08-12T22:55:03.733Z,65.36
2022-08-12T22:57:49.071Z,65.44
2022-08-12T23:00:27.476Z,65.31
2022-08-12T23:03:03.437Z,65.60
2022-08-12T23:05:57.207Z,65.60
2022-08-12T23:08:22.615Z,65.29
2022-08-12T23:10:51.191Z,65.15
2022-08-12T23:13:43.418Z,65.83
2022-08-12T23:16:28.477Z,65.51
2022-08-12T23:19:10.405Z,67.27
2022-08-12T23:22:06.540Z,67.24
2022-08-12T23:24:53.720Z,67.49
2022-08-12T23:27:50.136Z,67.15
2022-08-12T23:30:31.028Z,67.03
2022-08-12T23:33:01.534Z,66.47
2022-08-12T23:35:45.498Z,66.36
2022-08-12T23:38:30.367Z,65.97
2022-08-12T23:41:02.040Z,66.10
2022-08-12T23:43:39.008Z,66.09
2022-08-12T23:46:10.404Z,66.11
2022-08-12T23:48:40.041Z,66.13
2022-08-12T23:51:22.274Z,65.99
2022-08-12T23:53:59.846Z,65.96
2022-08-12T23:56:33.900Z,66.18
2022-08-12T23:59:06.726Z,65.74
